Time;durP1;ratioP1;P1;durP2;ratioP2;P2;SDS_P1;SDS_P2;PMS_P1;PMS_P2;Temp;Humidity;BMP_temperature;BMP_pressure;BME280_temperature;BME280_humidity;BME280_pressure;Samples;Min_cycle;Max_cycle;Signal;HPM_P1;HPM_P2
2021/10/27 00:00:09;;;;;;;81.45;34.55;;;;;;;1.59;69.79;101377.58;1432153;91;22483;-94
2021/10/27 00:02:36;;;;;;;79.60;37.35;;;;;;;1.55;69.74;101386.43;1425014;91;21496;-93
2021/10/27 00:05:05;;;;;;;73.05;34.73;;;;;;;1.55;69.35;101378.17;1434089;91;21328;-93
2021/10/27 00:07:33;;;;;;;67.97;33.18;;;;;;;1.55;69.04;101375.99;1429289;91;22382;-95
2021/10/27 00:10:03;;;;;;;77.25;35.03;;;;;;;1.57;68.78;101383.30;1417011;91;22228;-95
2021/10/27 00:12:30;;;;;;;73.22;33.45;;;;;;;1.57;68.86;101383.30;1434233;91;21594;-96
2021/10/27 00:15:07;;;;;;;69.65;33.42;;;;;;;1.58;69.07;101384.99;1422927;91;21356;-95
2021/10/27 00:17:35;;;;;;;74.47;35.78;;;;;;;1.54;69.11;101390.81;1417312;91;21452;-95
2021/10/27 00:20:12;;;;;;;65.97;33.02;;;;;;;1.54;69.12;101386.05;1441477;90;21398;-95
2021/10/27 00:22:45;;;;;;;64.72;32.60;;;;;;;1.50;69.17;101384.04;1427324;90;22899;-96
2021/10/27 00:25:12;;;;;;;77.78;32.70;;;;;;;1.49;69.08;101385.39;1440244;90;21376;-96
2021/10/27 00:27:44;;;;;;;66.33;29.48;;;;;;;1.51;68.71;101377.89;1458551;90;21259;-96
2021/10/27 00:30:12;;;;;;;72.50;34.20;;;;;;;1.54;68.88;101378.22;1439651;90;21383;-95
2021/10/27 00:32:40;;;;;;;68.83;34.25;;;;;;;1.53;68.78;101376.55;1446588;90;22447;-94
2021/10/27 00:35:08;;;;;;;68.47;32.33;;;;;;;1.53;69.25;101373.93;1446958;89;21481;-95
2021/10/27 00:37:41;;;;;;;64.40;31.13;;;;;;;1.56;69.17;101371.19;1450349;89;21508;-96
2021/10/27 00:40:13;;;;;;;56.65;28.23;;;;;;;1.56;69.02;101367.27;1436208;90;21646;-95
2021/10/27 00:42:44;;;;;;;57.38;29.52;;;;;;;1.56;69.63;101375.10;1454547;89;21418;-93
2021/10/27 00:45:11;;;;;;;56.15;29.98;;;;;;;1.52;70.81;101374.83;1444867;90;21450;-95
2021/10/27 00:47:38;;;;;;;54.93;27.73;;;;;;;1.37;70.38;101376.34;1447639;89;21428;-94
2021/10/27 00:50:06;;;;;;;58.68;28.90;;;;;;;1.31;71.44;101382.66;1448663;89;21517;-95
2021/10/27 00:52:34;;;;;;;64.07;30.10;;;;;;;1.28;70.99;101380.19;1449176;90;22256;-94
2021/10/27 00:55:04;;;;;;;54.10;29.52;;;;;;;1.29;70.82;101376.65;1456432;89;21302;-95
2021/10/27 00:57:32;;;;;;;66.07;28.40;;;;;;;1.31;70.67;101373.53;1457096;89;21346;-94
2021/10/27 01:00:05;;;;;;;51.95;26.73;;;;;;;1.31;70.75;101375.30;1441076;89;21443;-95
2021/10/27 01:02:32;;;;;;;48.90;27.37;;;;;;;1.30;70.16;101366.63;1452834;89;22463;-94
2021/10/27 01:05:00;;;;;;;54.27;28.60;;;;;;;1.24;70.76;101366.89;1450146;90;21346;-93
2021/10/27 01:07:30;;;;;;;51.65;27.20;;;;;;;1.24;70.48;101378.63;1448606;90;22389;-94
2021/10/27 01:09:58;;;;;;;56.73;27.30;;;;;;;1.26;70.74;101376.78;1450401;87;21267;-96
2021/10/27 01:12:28;;;;;;;53.92;29.75;;;;;;;1.24;70.90;101375.18;1434673;90;21288;-96
2021/10/27 01:14:55;;;;;;;55.08;29.95;;;;;;;1.22;71.11;101373.08;1428208;89;22359;-96
2021/10/27 01:17:23;;;;;;;53.35;27.80;;;;;;;1.17;71.16;101370.66;1439219;90;21339;-96
2021/10/27 01:19:58;;;;;;;57.10;28.70;;;;;;;1.16;70.97;101374.65;1413237;90;23089;-96
2021/10/27 01:22:31;;;;;;;55.08;28.25;;;;;;;1.05;71.31;101371.17;1436088;92;21431;-95
2021/10/27 01:25:00;;;;;;;66.07;33.63;;;;;;;0.98;71.87;101373.20;1408385;89;22289;-95
2021/10/27 01:27:28;;;;;;;70.57;34.30;;;;;;;0.95;71.90;101369.42;1412422;88;21365;-96
2021/10/27 01:30:04;;;;;;;62.70;34.10;;;;;;;0.90;71.55;101367.45;1406988;92;21276;-95
2021/10/27 01:35:01;;;;;;;66.53;31.45;;;;;;;0.87;71.62;101367.11;1449084;89;21612;-96
2021/10/27 01:37:28;;;;;;;69.92;33.15;;;;;;;0.85;71.61;101363.71;1462261;89;21333;-96
2021/10/27 01:39:57;;;;;;;66.47;31.60;;;;;;;0.81;71.74;101367.83;1467408;89;21303;-96
2021/10/27 01:42:26;;;;;;;63.87;34.18;;;;;;;0.78;71.80;101364.89;1472767;89;22863;-95
2021/10/27 01:44:53;;;;;;;67.55;32.58;;;;;;;0.76;71.61;101363.25;1464441;89;21309;-96
2021/10/27 01:47:23;;;;;;;60.65;31.62;;;;;;;0.72;71.92;101363.83;1449652;89;21449;-94
2021/10/27 01:49:51;;;;;;;61.83;32.13;;;;;;;0.73;71.34;101364.22;1463593;89;21420;-95
2021/10/27 01:52:21;;;;;;;66.57;32.05;;;;;;;0.73;71.93;101365.52;1449914;89;22032;-96
2021/10/27 01:54:50;;;;;;;61.77;29.72;;;;;;;0.74;72.00;101366.36;1466940;88;21413;-96
2021/10/27 01:57:17;;;;;;;60.70;30.20;;;;;;;0.75;71.59;101365.02;1432340;89;21375;-96
2021/10/27 02:02:13;;;;;;;66.47;33.15;;;;;;;0.65;73.65;101375.39;1413557;86;21599;-96
2021/10/27 02:04:40;;;;;;;62.05;28.95;;;;;;;0.57;72.92;101373.08;1438653;86;21580;-96
2021/10/27 02:07:07;;;;;;;56.75;30.70;;;;;;;0.56;72.61;101367.95;1504793;86;21470;-95
2021/10/27 02:09:37;;;;;;;64.75;31.70;;;;;;;0.56;72.28;101364.05;1505200;87;21404;-95
2021/10/27 02:12:07;;;;;;;72.58;33.85;;;;;;;0.52;72.23;101362.02;1498635;87;21529;-95
2021/10/27 02:14:35;;;;;;;63.63;32.03;;;;;;;0.50;72.22;101368.20;1493889;86;21352;-96
2021/10/27 02:17:03;;;;;;;64.37;34.38;;;;;;;0.48;72.13;101371.30;1511992;86;21418;-95
2021/10/27 02:19:31;;;;;;;68.62;32.60;;;;;;;0.53;72.57;101375.89;1509014;86;21241;-95
2021/10/27 02:21:58;;;;;;;59.20;32.48;;;;;;;0.52;73.08;101384.16;1501245;87;21427;-96
2021/10/27 02:24:26;;;;;;;62.33;33.13;;;;;;;0.42;73.62;101388.86;1494737;87;21293;-96
2021/10/27 02:26:55;;;;;;;67.62;32.40;;;;;;;0.32;73.44;101405.77;1498150;87;21248;-95
2021/10/27 02:29:23;;;;;;;65.08;31.40;;;;;;;0.27;73.40;101406.84;1486643;87;21330;-96
2021/10/27 02:31:50;;;;;;;65.17;31.73;;;;;;;0.28;73.28;101402.86;1492073;87;22575;-94
2021/10/27 02:34:18;;;;;;;62.55;29.72;;;;;;;0.29;73.30;101405.88;1480696;86;21426;-96
2021/10/27 02:36:45;;;;;;;71.57;35.33;;;;;;;0.30;72.99;101408.87;1505006;87;21248;-95
2021/10/27 02:39:12;;;;;;;73.57;32.25;;;;;;;0.24;73.40;101410.41;1484394;87;21308;-96
2021/10/27 02:41:40;;;;;;;65.28;32.17;;;;;;;0.17;73.19;101402.41;1488321;87;21285;-96
2021/10/27 02:44:10;;;;;;;70.78;34.55;;;;;;;0.14;73.48;101408.58;1485951;86;21438;-96
2021/10/27 02:46:38;;;;;;;57.98;31.30;;;;;;;0.15;73.22;101411.59;1491809;87;21507;-96
2021/10/27 02:49:07;;;;;;;58.90;29.45;;;;;;;0.19;73.14;101417.53;1481301;86;23396;-92
2021/10/27 02:51:38;;;;;;;60.30;30.97;;;;;;;0.17;73.31;101420.21;1483957;87;21421;-91
2021/10/27 02:54:07;;;;;;;;;;;;;;;0.16;73.54;101424.16;1463203;87;21450;-92
2021/10/27 02:56:38;;;;;;;69.12;34.65;;;;;;;0.14;73.97;101423.36;1491075;87;20844;-93
2021/10/27 02:59:09;;;;;;;59.58;30.17;;;;;;;0.11;73.40;101429.98;1470559;87;21406;-93
2021/10/27 03:01:42;;;;;;;58.33;30.35;;;;;;;0.12;73.41;101422.12;1479559;87;21332;-92
2021/10/27 03:04:09;;;;;;;56.40;29.57;;;;;;;0.18;73.42;101430.16;1485652;87;21391;-92
2021/10/27 03:06:36;;;;;;;66.10;30.45;;;;;;;0.19;73.32;101434.45;1470861;86;22500;-90
2021/10/27 03:09:05;;;;;;;59.30;29.25;;;;;;;0.18;73.80;101428.86;1478801;87;22522;-92
2021/10/27 03:11:34;;;;;;;65.37;32.78;;;;;;;0.12;73.59;101435.59;1482961;88;21465;-92
2021/10/27 03:14:01;;;;;;;71.35;34.65;;;;;;;0.07;72.38;101445.33;1422291;90;21494;-94
2021/10/27 03:16:34;;;;;;;80.28;36.45;;;;;;;0.03;71.25;101443.72;1468510;88;22361;-94
2021/10/27 03:19:03;;;;;;;87.73;40.00;;;;;;;-0.07;70.70;101445.36;1403518;89;21693;31
2021/10/27 03:21:34;;;;;;;70.10;35.00;;;;;;;-0.13;70.88;101447.34;1418693;88;21524;31
2021/10/27 03:24:06;;;;;;;76.07;34.03;;;;;;;-0.18;71.48;101450.55;1424613;88;21751;-96
2021/10/27 03:26:34;;;;;;;67.32;33.98;;;;;;;-0.31;71.83;101457.94;1435515;90;21348;-96
2021/10/27 03:29:01;;;;;;;67.50;32.80;;;;;;;-0.32;71.90;101454.46;1409582;86;21843;-91
2021/10/27 03:31:31;;;;;;;65.00;34.08;;;;;;;-0.25;72.38;101452.52;1385148;85;21563;31
2021/10/27 03:33:58;;;;;;;71.30;33.18;;;;;;;-0.24;72.67;101454.20;1416382;87;21703;-94
2021/10/27 03:36:25;;;;;;;65.97;33.40;;;;;;;-0.20;71.80;101445.41;1408053;85;21504;-94
2021/10/27 03:38:56;;;;;;;68.28;33.10;;;;;;;-0.13;71.50;101442.12;1386040;86;21626;31
2021/10/27 03:41:26;;;;;;;49.75;26.52;;;;;;;-0.12;71.62;101432.11;1395465;84;21671;31
2021/10/27 03:43:56;;;;;;;55.80;31.52;;;;;;;-0.18;72.72;101438.38;1391881;85;21508;31
2021/10/27 03:46:26;;;;;;;52.75;26.40;;;;;;;-0.18;72.82;101438.38;1380792;87;21877;31
2021/10/27 03:48:56;;;;;;;66.47;33.53;;;;;;;-0.19;73.15;101439.75;1381873;87;21613;31
2021/10/27 03:51:26;;;;;;;73.60;33.65;;;;;;;-0.19;73.09;101443.20;1357978;87;21516;31
2021/10/27 03:53:57;;;;;;;70.20;35.55;;;;;;;-0.16;73.03;101436.58;1351865;89;23428;31
2021/10/27 03:56:27;;;;;;;66.25;35.35;;;;;;;-0.14;72.60;101433.94;1393234;86;23615;31
2021/10/27 03:58:57;;;;;;;89.35;38.63;;;;;;;-0.11;72.48;101425.56;1407104;86;21507;31
2021/10/27 04:01:27;;;;;;;78.33;40.17;;;;;;;-0.07;72.54;101428.90;1387792;85;21845;31
2021/10/27 04:03:55;;;;;;;80.00;41.75;;;;;;;-0.08;72.58;101423.31;1419247;86;23042;-95
2021/10/27 04:06:30;;;;;;;86.32;41.63;;;;;;;-0.07;72.73;101430.20;1491148;87;21367;-94
2021/10/27 04:08:57;;;;;;;83.92;42.55;;;;;;;-0.11;73.33;101432.06;1476464;86;21463;-94
2021/10/27 04:11:25;;;;;;;78.60;41.02;;;;;;;-0.17;73.14;101423.61;1485431;87;21486;-95
2021/10/27 04:13:52;;;;;;;82.82;41.83;;;;;;;-0.20;73.79;101424.59;1491935;87;21331;-95
2021/10/27 04:16:19;;;;;;;73.95;40.63;;;;;;;-0.19;73.34;101424.98;1417036;90;21390;-95
2021/10/27 04:18:47;;;;;;;83.97;39.63;;;;;;;-0.16;73.19;101424.88;1483251;87;21331;-95
2021/10/27 04:21:16;;;;;;;69.15;36.50;;;;;;;-0.13;73.04;101421.31;1444211;90;21375;-94
2021/10/27 04:23:45;;;;;;;75.47;37.03;;;;;;;-0.09;72.88;101415.08;1481806;87;21446;-94
2021/10/27 04:26:21;;;;;;;68.28;35.20;;;;;;;-0.09;73.33;101425.49;1476630;87;21338;-95
2021/10/27 04:28:49;;;;;;;68.30;34.48;;;;;;;-0.11;73.69;101424.27;1432430;91;21391;-94
2021/10/27 04:31:28;;;;;;;61.80;34.30;;;;;;;-0.12;73.75;101438.61;1496101;87;21309;-94
2021/10/27 04:33:55;;;;;;;61.83;33.18;;;;;;;-0.09;73.98;101438.05;1476519;87;21302;-94
2021/10/27 04:36:23;;;;;;;64.00;34.23;;;;;;;-0.06;73.45;101448.38;1438172;87;21325;-94
2021/10/27 04:38:50;;;;;;;62.70;32.75;;;;;;;-0.13;74.41;101444.27;1482070;85;22803;-90
2021/10/27 04:41:21;;;;;;;61.25;33.50;;;;;;;-0.22;74.82;101451.11;1394108;86;23922;31
2021/10/27 04:43:48;;;;;;;59.75;35.25;;;;;;;-0.25;75.02;101464.23;1400526;87;21661;-94
2021/10/27 04:46:16;;;;;;;65.28;34.65;;;;;;;-0.28;75.00;101471.69;1465219;88;21419;-94
2021/10/27 04:48:49;;;;;;;65.90;33.85;;;;;;;-0.29;75.64;101472.60;1453679;90;22745;-94
2021/10/27 04:51:16;;;;;;;58.15;33.25;;;;;;;-0.34;74.94;101478.86;1435495;89;21405;-96
2021/10/27 04:56:29;;;;;;;64.90;33.60;;;;;;;-0.55;74.60;101509.86;1386577;87;22516;31
2021/10/27 04:58:59;;;;;;;70.37;36.17;;;;;;;-0.73;75.09;101511.77;1409647;86;21839;31
2021/10/27 05:01:27;;;;;;;65.90;35.85;;;;;;;-0.74;74.39;101510.08;1409437;87;21615;-96
2021/10/27 05:03:55;;;;;;;70.45;34.35;;;;;;;-0.80;74.16;101509.81;1358731;92;21975;-95
2021/10/27 05:08:59;;;;;;;70.78;34.03;;;;;;;-0.92;74.14;101531.84;1373445;87;21804;-94
2021/10/27 05:11:26;;;;;;;64.00;33.25;;;;;;;-0.89;74.20;101531.33;1409776;86;21656;-92
2021/10/27 05:13:54;;;;;;;62.70;33.85;;;;;;;-0.82;73.89;101536.30;1458504;89;21386;-93
2021/10/27 05:16:22;;;;;;;65.50;34.60;;;;;;;-0.79;73.77;101532.76;1448012;88;21422;-93
2021/10/27 05:18:49;;;;;;;64.85;33.48;;;;;;;-0.86;74.02;101552.02;1448239;90;22452;-93
2021/10/27 05:21:16;;;;;;;68.42;35.15;;;;;;;-0.93;72.39;101553.97;1443928;90;22770;-93
2021/10/27 05:23:44;;;;;;;74.60;35.75;;;;;;;-0.97;72.32;101551.92;1461195;90;22251;-95
2021/10/27 05:26:15;;;;;;;64.47;37.48;;;;;;;-0.95;72.85;101560.53;1447802;86;21598;31
2021/10/27 05:31:11;;;;;;;65.10;34.88;;;;;;;-0.95;73.47;101577.42;1397936;86;22532;-95
2021/10/27 05:36:08;;;;;;;79.22;36.83;;;;;;;-0.89;74.23;101578.11;1427225;86;21708;-93
2021/10/27 05:38:35;;;;;;;66.87;33.25;;;;;;;-0.86;74.28;101584.09;1448915;89;22668;-95
2021/10/27 05:41:03;;;;;;;95.75;37.60;;;;;;;-0.80;73.85;101584.36;1453648;88;21326;-92
2021/10/27 05:43:34;;;;;;;71.07;33.90;;;;;;;-0.69;73.60;101593.98;1435202;91;21361;-93
2021/10/27 05:46:02;;;;;;;66.25;38.30;;;;;;;-0.63;73.74;101591.19;1455227;89;22442;-91
2021/10/27 05:48:36;;;;;;;76.62;36.73;;;;;;;-0.54;73.44;101594.80;1434268;91;21442;-92
2021/10/27 05:51:24;;;;;;;67.35;36.08;;;;;;;-0.44;73.85;101591.89;1457105;89;21504;-90
2021/10/27 05:56:41;;;;;;;102.30;55.60;;;;;;;-0.28;73.92;101587.91;1447476;89;21523;-91
2021/10/27 05:59:09;;;;;;;142.03;77.37;;;;;;;-0.15;73.84;101586.59;1452147;89;22390;-91
2021/10/27 06:01:36;;;;;;;139.37;66.57;;;;;;;-0.04;73.83;101590.99;1432476;91;21650;-93
2021/10/27 06:04:03;;;;;;;126.62;61.23;;;;;;;0.12;73.73;101591.80;1453809;89;21420;-91
2021/10/27 06:06:37;;;;;;;120.85;63.90;;;;;;;0.24;73.64;101592.67;1455177;89;23558;-91
2021/10/27 06:09:06;;;;;;;111.75;57.85;;;;;;;0.37;73.60;101595.23;1476580;87;21324;-92
2021/10/27 06:11:33;;;;;;;119.17;57.60;;;;;;;0.45;73.59;101588.45;1480589;88;21487;-91
2021/10/27 06:14:02;;;;;;;104.65;53.08;;;;;;;0.62;73.23;101594.37;1454562;88;21310;-91
2021/10/27 06:16:29;;;;;;;96.65;50.75;;;;;;;0.70;73.45;101596.71;1520341;87;21303;-92
2021/10/27 06:19:04;;;;;;;87.70;49.23;;;;;;;0.78;73.15;101592.07;1468853;88;21954;-91
2021/10/27 06:21:42;;;;;;;110.57;55.17;;;;;;;0.83;73.69;101601.39;1458182;88;21309;-92
2021/10/27 06:24:09;;;;;;;93.75;51.48;;;;;;;0.86;73.01;101609.55;1478050;88;22500;-91
2021/10/27 06:26:38;;;;;;;97.73;51.00;;;;;;;1.03;72.80;101607.63;1478530;87;21353;-90
2021/10/27 06:29:07;;;;;;;88.67;41.42;;;;;;;1.17;72.77;101602.74;1461415;88;21646;-88
2021/10/27 06:31:38;;;;;;;67.70;37.37;;;;;;;1.30;72.59;101611.80;1479978;88;21689;-87
2021/10/27 06:47:45;;;;;;;90.50;51.67;;;;;;;1.76;71.85;101638.70;1480331;88;22422;-90
2021/10/27 06:50:13;;;;;;;84.00;46.60;;;;;;;1.98;71.94;101629.98;1481769;88;21717;-89
2021/10/27 06:52:40;;;;;;;76.87;38.57;;;;;;;2.08;72.09;101646.98;1481868;88;21498;-90
2021/10/27 06:55:08;;;;;;;105.10;52.63;;;;;;;1.98;72.91;101645.65;1479272;88;21622;-89
2021/10/27 06:57:35;;;;;;;181.27;98.90;;;;;;;2.14;72.36;101644.58;1479189;87;21442;-90
2021/10/27 07:00:40;;;;;;;114.17;61.80;;;;;;;2.23;72.61;101642.41;1463618;88;21461;-90
2021/10/27 07:16:22;;;;;;;165.27;86.57;;;;;;;3.37;71.28;101657.88;1483493;87;21423;-89
2021/10/27 07:18:50;;;;;;;118.80;57.60;;;;;;;3.55;70.82;101661.86;1481195;88;21727;-89
2021/10/27 07:21:24;;;;;;;88.57;49.40;;;;;;;3.73;70.52;101656.20;1474717;88;21771;-90
2021/10/27 07:23:51;;;;;;;77.47;41.30;;;;;;;3.83;69.97;101658.78;1479530;88;21450;-90
2021/10/27 07:26:20;;;;;;;63.07;37.33;;;;;;;3.97;69.88;101660.70;1480028;87;21584;-90
2021/10/27 07:28:51;;;;;;;69.40;39.67;;;;;;;4.09;69.44;101652.73;1478225;88;21479;-90
2021/10/27 07:31:17;;;;;;;71.03;39.97;;;;;;;4.32;69.66;101653.73;1478019;87;21832;-90
2021/10/27 07:33:55;;;;;;;68.73;38.63;;;;;;;4.56;69.29;101657.34;1481318;88;21813;-90
2021/10/27 07:41:37;;;;;;;60.83;36.40;;;;;;;5.45;67.94;101644.73;1479820;88;22292;-89
2021/10/27 07:44:14;;;;;;;68.00;36.20;;;;;;;5.45;67.94;101644.73;1480749;88;22963;-90
2021/10/27 07:46:36;;;;;;;62.07;34.13;;;;;;;5.60;67.50;101642.09;1479844;88;23053;-89
2021/10/27 07:49:04;;;;;;;60.17;34.93;;;;;;;5.77;67.05;101661.31;1484757;87;22028;-89
2021/10/27 07:51:31;;;;;;;61.83;34.60;;;;;;;5.95;67.05;101662.08;1482306;87;22070;-89
2021/10/27 07:53:58;;;;;;;55.13;33.90;;;;;;;6.12;66.82;101655.86;1483833;88;21985;-89
2021/10/27 07:56:29;;;;;;;54.27;34.70;;;;;;;6.31;66.53;101659.95;1482687;88;22987;-89
2021/10/27 07:58:55;;;;;;;55.20;33.13;;;;;;;6.66;65.44;101657.01;1471623;88;21560;-89
2021/10/27 08:01:24;;;;;;;47.43;29.13;;;;;;;6.66;65.44;101657.01;1479656;88;21361;-90
2021/10/27 08:03:52;;;;;;;50.10;28.53;;;;;;;6.94;65.41;101663.24;1481734;88;21369;-88
2021/10/27 08:06:19;;;;;;;50.80;29.57;;;;;;;7.19;65.15;101671.33;1478847;87;21472;-91
2021/10/27 08:08:49;;;;;;;37.47;26.03;;;;;;;7.42;64.58;101659.34;1478448;87;21339;-88
2021/10/27 08:11:18;;;;;;;37.93;25.17;;;;;;;7.65;63.70;101657.01;1478181;87;21376;-90
2021/10/27 08:13:45;;;;;;;50.43;25.93;;;;;;;7.86;63.57;101660.07;1476025;88;21502;-90
2021/10/27 08:16:13;;;;;;;43.73;26.80;;;;;;;7.99;62.90;101655.66;1480661;88;21524;-89
2021/10/27 08:18:40;;;;;;;40.90;24.17;;;;;;;8.17;61.95;101659.34;1481180;88;21502;-90
2021/10/27 08:21:10;;;;;;;42.37;24.53;;;;;;;8.20;60.77;101660.02;1478422;88;21509;-88
2021/10/27 08:23:42;;;;;;;42.85;24.12;;;;;;;8.40;61.37;101653.88;1477179;88;21412;-88
2021/10/27 08:26:15;;;;;;;39.70;24.03;;;;;;;8.58;60.38;101658.77;1479909;87;21317;-89
2021/10/27 08:28:52;;;;;;;38.90;24.03;;;;;;;8.72;59.23;101655.67;1482347;88;22073;-90
2021/10/27 08:36:23;;;;;;;41.50;23.20;;;;;;;9.24;59.57;101646.74;1478300;87;21399;-87
2021/10/27 08:38:53;;;;;;;45.70;22.93;;;;;;;9.39;57.75;101650.92;1480188;86;21354;-86
2021/10/27 08:41:20;;;;;;;41.27;24.60;;;;;;;9.49;58.00;101653.28;1495046;87;21383;-85
2021/10/27 08:43:54;;;;;;;33.97;22.03;;;;;;;9.74;58.26;101641.39;1495097;86;21399;-86
2021/10/27 08:46:25;;;;;;;41.67;20.70;;;;;;;9.87;56.55;101646.99;1492759;87;21325;-87
2021/10/27 08:48:55;;;;;;;41.37;22.17;;;;;;;10.00;56.55;101642.11;1500213;87;21510;-88
2021/10/27 08:51:27;;;;;;;64.72;21.27;;;;;;;10.10;56.02;101637.34;1468428;88;21625;-88
2021/10/27 08:53:56;;;;;;;72.07;22.10;;;;;;;10.25;55.38;101634.02;1471910;88;21419;-88
2021/10/27 08:56:26;;;;;;;37.67;20.27;;;;;;;10.30;54.88;101639.84;1474372;88;21382;-88
2021/10/27 08:59:38;;;;;;;34.30;21.93;;;;;;;10.47;54.16;101639.02;1473540;88;21374;-87
2021/10/27 09:37:35;;;;;;;39.58;21.37;;;;;;;18.49;38.80;101616.80;1449530;90;21574;-88
2021/10/27 10:05:27;;;;;;;27.17;18.27;;;;;;;19.77;34.54;101626.09;1471812;89;21575;-87
2021/10/27 10:07:55;;;;;;;22.30;17.87;;;;;;;19.34;34.04;101626.09;1450226;89;21471;-88
2021/10/27 10:10:22;;;;;;;24.57;15.58;;;;;;;19.70;34.31;101625.05;1452804;89;21373;-87
2021/10/27 10:12:52;;;;;;;26.75;16.70;;;;;;;20.02;33.90;101620.44;1452116;89;21427;-88
2021/10/27 10:15:37;;;;;;;17.80;13.60;;;;;;;19.77;32.18;101617.13;1452177;89;21801;-88
2021/10/27 10:17:56;;;;;;;24.77;14.55;;;;;;;19.70;33.41;101630.42;1454663;88;21671;-88
2021/10/27 10:20:25;;;;;;;25.50;15.15;;;;;;;19.62;31.24;101625.06;1445580;90;21588;-88
2021/10/27 10:22:52;;;;;;;27.82;15.80;;;;;;;19.46;32.60;101626.02;1423104;89;22921;-88
2021/10/27 10:25:27;;;;;;;22.20;12.70;;;;;;;19.33;34.20;101624.41;1447764;89;21568;-89
2021/10/27 10:28:00;;;;;;;24.40;16.85;;;;;;;19.09;34.23;101619.49;1450734;89;21464;-88
2021/10/27 10:30:38;;;;;;;28.77;17.80;;;;;;;19.18;34.21;101621.63;1444977;90;21434;-89
2021/10/27 10:33:09;;;;;;;27.85;16.62;;;;;;;19.39;33.58;101615.16;1447710;89;21450;-88
2021/10/27 10:42:00;;;;;;;25.45;18.40;;;;;;;19.33;32.97;101614.53;1439944;90;21376;-88
2021/10/27 11:26:59;;;;;;;19.92;13.65;;;;;;;20.40;30.87;101556.76;1452885;90;21356;-91
2021/10/27 11:40:43;;;;;;;19.25;14.07;;;;;;;21.13;30.10;101533.48;1448379;89;21581;-87
2021/10/27 11:43:16;;;;;;;23.83;14.53;;;;;;;21.26;29.38;101533.30;1432830;90;22407;-89
2021/10/27 11:45:39;;;;;;;24.05;12.37;;;;;;;21.31;29.19;101531.70;1439570;90;21664;-88
2021/10/27 11:48:22;;;;;;;20.65;10.03;;;;;;;21.21;29.04;101533.06;1443263;90;21640;-87
2021/10/27 11:50:44;;;;;;;20.05;10.88;;;;;;;21.18;28.96;101527.02;1442483;90;21545;-87
2021/10/27 11:53:33;;;;;;;18.25;10.23;;;;;;;21.26;28.56;101526.57;1443014;90;21434;-87
2021/10/27 11:56:20;;;;;;;22.65;11.48;;;;;;;21.28;28.86;101521.84;1444139;90;21367;-87
2021/10/27 11:58:53;;;;;;;16.73;12.93;;;;;;;21.51;28.31;101519.81;1457429;89;21332;-87
2021/10/27 12:01:38;;;;;;;14.10;9.98;;;;;;;21.39;28.57;101514.11;1457326;89;21360;-88
2021/10/27 12:04:05;;;;;;;;;;;;;;;21.70;28.60;101506.73;1421556;92;21420;-87
2021/10/27 12:09:43;;;;;;;14.68;10.60;;;;;;;21.87;28.29;101501.37;1456149;89;22471;-87
2021/10/27 12:11:50;;;;;;;13.98;10.45;;;;;;;21.80;27.81;101497.77;1462901;89;21433;-87
2021/10/27 12:14:25;;;;;;;18.47;10.47;;;;;;;21.50;26.28;101493.09;1457478;89;21478;-87
2021/10/27 12:19:32;;;;;;;20.35;10.88;;;;;;;21.33;27.64;101495.17;1472520;88;22483;-87
2021/10/27 12:22:09;;;;;;;21.85;12.30;;;;;;;21.21;28.12;101498.06;1476896;88;21530;-87
2021/10/27 12:24:39;;;;;;;15.03;11.00;;;;;;;21.44;28.56;101497.39;1532031;88;21487;-87
2021/10/27 12:27:32;;;;;;;20.02;11.28;;;;;;;21.90;28.22;101495.58;1453780;88;21522;-86
2021/10/27 12:29:57;;;;;;;17.20;10.15;;;;;;;21.75;27.91;101490.78;1477527;88;21448;-87
2021/10/27 12:32:29;;;;;;;18.60;9.60;;;;;;;21.89;27.79;101495.77;1470545;88;21382;-87
2021/10/27 12:35:07;;;;;;;17.75;10.03;;;;;;;22.14;27.53;101501.55;1478813;88;22210;-87
2021/10/27 12:37:44;;;;;;;16.30;9.80;;;;;;;22.24;27.02;101500.69;1475089;88;21382;-87
2021/10/27 12:40:19;;;;;;;24.82;9.15;;;;;;;22.54;26.93;101498.58;1471286;88;21559;-87
2021/10/27 12:42:45;;;;;;;26.85;9.40;;;;;;;22.66;26.89;101496.12;1471157;88;21486;-87
2021/10/27 12:45:12;;;;;;;14.70;8.18;;;;;;;22.79;25.79;101490.80;1455223;88;21389;-86
2021/10/27 12:47:40;;;;;;;14.05;8.88;;;;;;;22.65;25.39;101492.61;1474775;88;21486;-87
2021/10/27 12:50:15;;;;;;;19.15;11.05;;;;;;;22.78;25.77;101487.76;1475770;88;21470;-87
2021/10/27 12:52:52;;;;;;;23.18;9.48;;;;;;;22.98;25.68;101481.93;1453612;88;21561;-87
2021/10/27 12:55:32;;;;;;;22.48;11.25;;;;;;;23.00;25.53;101483.09;1472174;88;21412;-86
2021/10/27 12:58:12;;;;;;;18.48;9.40;;;;;;;23.13;25.50;101479.08;1465965;88;21589;-87
2021/10/27 13:03:38;;;;;;;18.73;10.10;;;;;;;23.01;25.24;101482.56;1465228;88;20387;-86
2021/10/27 13:06:34;;;;;;;17.17;10.00;;;;;;;22.83;25.45;101486.64;1475540;88;22446;-86
2021/10/27 13:08:50;;;;;;;21.15;9.93;;;;;;;22.72;25.42;101480.48;1463500;88;21396;-86
2021/10/27 13:19:51;;;;;;;67.55;11.85;;;;;;;22.86;25.66;101491.63;1470138;88;21405;-87
2021/10/27 13:21:58;;;;;;;39.45;9.70;;;;;;;23.01;25.66;101490.66;1463979;88;22410;-86
2021/10/27 13:29:53;;;;;;;25.68;9.85;;;;;;;23.25;25.29;101483.35;1469682;88;21366;-86
2021/10/27 13:32:19;;;;;;;14.10;9.08;;;;;;;22.92;25.34;101490.81;1467166;88;21551;-86
2021/10/27 13:34:47;;;;;;;15.93;9.05;;;;;;;22.92;25.68;101478.67;1471673;88;21449;-86
2021/10/27 13:37:17;;;;;;;16.23;9.28;;;;;;;22.98;25.55;101482.45;1457830;88;21360;-86
2021/10/27 13:39:44;;;;;;;19.70;9.65;;;;;;;22.56;25.64;101475.42;1479650;88;21500;-86
2021/10/27 13:42:23;;;;;;;19.70;9.35;;;;;;;22.18;25.98;101484.81;1465619;88;21486;-86
2021/10/27 13:44:58;;;;;;;20.20;9.58;;;;;;;21.58;26.25;101481.66;1468750;88;21507;-86
2021/10/27 13:57:59;;;;;;;23.22;10.23;;;;;;;19.29;28.53;101485.70;1465832;88;22329;-86
2021/10/27 14:06:01;;;;;;;18.12;10.82;;;;;;;18.14;29.97;101478.71;1460022;88;21634;-85
2021/10/27 14:08:45;;;;;;;20.60;10.30;;;;;;;17.80;30.46;101473.59;1480372;88;21442;-86
2021/10/27 14:11:13;;;;;;;31.07;10.83;;;;;;;17.53;30.91;101476.10;1466722;88;21397;-86
2021/10/27 14:16:38;;;;;;;21.93;10.07;;;;;;;17.14;31.79;101470.87;1403888;92;21399;-87
2021/10/27 15:22:14;;;;;;;24.30;10.57;;;;;;;13.07;41.62;101467.98;1462213;89;22557;-86
2021/10/27 15:24:41;;;;;;;31.10;11.00;;;;;;;12.91;41.99;101467.17;1461007;89;21412;-86
2021/10/27 15:32:24;;;;;;;26.07;12.27;;;;;;;12.21;44.01;101478.70;1465464;89;21427;-86
2021/10/27 15:42:54;;;;;;;47.23;16.33;;;;;;;11.59;45.84;101488.34;1452873;88;21537;-85
2021/10/27 15:45:35;;;;;;;56.20;20.52;;;;;;;11.49;45.91;101490.92;1467820;88;21482;-86
2021/10/27 15:50:46;;;;;;;36.80;15.27;;;;;;;11.27;46.37;101494.01;1472753;88;21560;-86
2021/10/27 15:53:10;;;;;;;46.80;17.13;;;;;;;11.13;46.55;101494.30;1463471;88;21398;-86
2021/10/27 15:55:38;;;;;;;42.67;16.13;;;;;;;10.95;47.15;101488.70;1463569;88;21338;-86
2021/10/27 15:58:07;;;;;;;55.53;18.03;;;;;;;10.87;47.62;101500.88;1473046;88;21486;-86
2021/10/27 16:00:38;;;;;;;92.90;21.03;;;;;;;10.75;47.91;101503.53;1451784;88;21509;-86
2021/10/27 16:03:03;;;;;;;69.97;21.63;;;;;;;10.69;48.06;101500.05;1474510;88;21609;-85
2021/10/27 16:05:30;;;;;;;56.67;21.77;;;;;;;10.59;48.70;101508.39;1450180;88;22709;-86
2021/10/27 16:08:09;;;;;;;67.63;25.13;;;;;;;10.39;49.13;101513.44;1468399;88;21450;-87
2021/10/27 16:10:37;;;;;;;55.50;23.67;;;;;;;10.23;49.68;101512.06;1475951;88;21507;-87
2021/10/27 16:13:06;;;;;;;56.90;20.60;;;;;;;9.97;50.87;101512.27;1478740;88;21456;-86
2021/10/27 16:15:42;;;;;;;83.53;23.07;;;;;;;9.77;51.13;101511.13;1467758;88;21339;-86
2021/10/27 16:18:11;;;;;;;83.23;23.07;;;;;;;9.64;51.47;101511.23;1466229;88;22358;-86
2021/10/27 16:20:41;;;;;;;90.05;23.85;;;;;;;9.57;52.03;101515.75;1470818;88;21302;-86
2021/10/27 16:23:09;;;;;;;82.03;26.40;;;;;;;9.40;53.16;101519.64;1460969;88;21396;-86